createdAt,value
2019-01-06T00:00:24.344Z,17.56
2019-01-06T00:01:24.599Z,17.56
2019-01-06T00:02:24.720Z,17.56
2019-01-06T00:03:24.348Z,17.55
2019-01-06T00:04:24.947Z,17.54
2019-01-06T00:05:24.477Z,17.53
2019-01-06T00:06:24.376Z,17.53
2019-01-06T00:07:24.281Z,17.53
2019-01-06T00:08:24.336Z,17.54
2019-01-06T00:09:24.575Z,17.53
2019-01-06T00:10:24.753Z,17.53
2019-01-06T00:11:24.432Z,17.52
2019-01-06T00:12:24.456Z,17.51
2019-01-06T00:13:24.481Z,17.51
2019-01-06T00:14:24.404Z,17.51
2019-01-06T00:15:24.274Z,17.51
2019-01-06T00:16:24.778Z,17.49
2019-01-06T00:17:24.471Z,17.5
2019-01-06T00:18:24.410Z,17.51
2019-01-06T00:19:24.247Z,17.5
2019-01-06T00:20:24.519Z,17.49
2019-01-06T00:21:24.434Z,17.48
2019-01-06T00:22:24.206Z,17.48
2019-01-06T00:23:24.384Z,17.48
2019-01-06T00:24:24.151Z,17.48
2019-01-06T00:25:24.336Z,17.48
2019-01-06T00:26:24.201Z,17.48
2019-01-06T00:27:24.377Z,17.46
2019-01-06T00:28:24.752Z,17.46
2019-01-06T00:29:24.578Z,17.46
2019-01-06T00:30:24.309Z,17.45
2019-01-06T00:31:24.412Z,17.45
2019-01-06T00:32:24.551Z,17.45
2019-01-06T00:33:24.489Z,17.44
2019-01-06T00:34:24.384Z,17.43
2019-01-06T00:35:24.296Z,17.42
2019-01-06T00:36:24.262Z,17.42
2019-01-06T00:37:24.251Z,17.43
2019-01-06T00:38:24.371Z,17.43
2019-01-06T00:39:24.363Z,17.43
2019-01-06T00:40:24.788Z,17.43
2019-01-06T00:41:24.415Z,17.42
2019-01-06T00:42:24.395Z,17.42
2019-01-06T00:43:24.580Z,17.42
2019-01-06T00:44:25.326Z,17.42
2019-01-06T00:45:24.899Z,17.42
2019-01-06T00:46:24.271Z,17.41
2019-01-06T00:47:24.881Z,17.41
2019-01-06T00:48:24.142Z,17.41
2019-01-06T00:49:24.453Z,17.41
2019-01-06T00:50:24.180Z,17.41
2019-01-06T00:51:24.690Z,17.4
2019-01-06T00:52:24.286Z,17.39
2019-01-06T00:53:24.272Z,17.38
2019-01-06T00:54:24.413Z,17.38
2019-01-06T00:55:24.388Z,17.38
2019-01-06T00:56:24.239Z,17.38
2019-01-06T00:57:24.582Z,17.37
2019-01-06T00:58:24.379Z,17.36
2019-01-06T00:59:24.586Z,17.36
2019-01-06T01:00:24.159Z,17.36
2019-01-06T01:01:24.350Z,17.36
2019-01-06T01:02:24.820Z,17.36
2019-01-06T01:03:24.440Z,17.35
2019-01-06T01:04:24.749Z,17.35
2019-01-06T01:05:24.253Z,17.35
2019-01-06T01:06:24.685Z,17.35
2019-01-06T01:07:24.446Z,17.35
2019-01-06T01:08:24.665Z,17.34
2019-01-06T01:09:24.340Z,17.33
2019-01-06T01:10:24.678Z,17.33
2019-01-06T01:11:24.686Z,17.33
2019-01-06T01:12:24.259Z,17.33
2019-01-06T01:13:25.233Z,17.33
2019-01-06T01:14:24.287Z,17.31
2019-01-06T01:15:24.529Z,17.32
2019-01-06T01:16:24.336Z,17.31
2019-01-06T01:17:24.392Z,17.31
2019-01-06T01:18:24.342Z,17.31
2019-01-06T01:19:24.087Z,17.31
2019-01-06T01:20:24.308Z,17.31
2019-01-06T01:21:24.330Z,17.31
2019-01-06T01:22:24.199Z,17.3
2019-01-06T01:23:24.542Z,17.29
2019-01-06T01:24:24.364Z,17.29
2019-01-06T01:25:24.556Z,17.29
2019-01-06T01:26:24.193Z,17.28
2019-01-06T01:27:24.430Z,17.27
2019-01-06T01:28:24.540Z,17.28
2019-01-06T01:29:24.245Z,17.28
2019-01-06T01:30:24.272Z,17.27
2019-01-06T01:31:24.173Z,17.27
2019-01-06T01:32:24.412Z,17.27
2019-01-06T01:33:24.490Z,17.26
2019-01-06T01:34:24.205Z,17.26
2019-01-06T01:35:24.546Z,17.26
2019-01-06T01:36:24.498Z,17.26
2019-01-06T01:37:24.682Z,17.25
2019-01-06T01:38:24.460Z,17.24
2019-01-06T01:39:24.724Z,17.24
2019-01-06T01:40:25.242Z,17.24
2019-01-06T01:41:24.135Z,17.24
2019-01-06T01:42:24.661Z,17.23
2019-01-06T01:43:24.196Z,17.23
2019-01-06T01:44:25.226Z,17.23
2019-01-06T01:45:24.305Z,17.23
2019-01-06T01:46:24.267Z,17.22
2019-01-06T01:47:24.463Z,17.22
2019-01-06T01:48:24.614Z,17.21
2019-01-06T01:49:24.346Z,17.22
2019-01-06T01:50:24.340Z,17.21
2019-01-06T01:51:24.238Z,17.21
2019-01-06T01:52:24.374Z,17.2
2019-01-06T01:53:24.146Z,17.2
2019-01-06T01:54:24.713Z,17.19
2019-01-06T01:55:24.915Z,17.19
2019-01-06T01:56:24.289Z,17.19
2019-01-06T01:57:24.776Z,17.19
2019-01-06T01:58:24.260Z,17.18
2019-01-06T01:59:24.343Z,17.17
2019-01-06T02:00:24.870Z,17.18
2019-01-06T02:01:24.460Z,17.17
2019-01-06T02:02:24.383Z,17.17
2019-01-06T02:03:24.599Z,17.17
2019-01-06T02:04:24.810Z,17.17
2019-01-06T02:05:25.233Z,17.16
2019-01-06T02:06:24.383Z,17.15
2019-01-06T02:07:24.171Z,17.16
2019-01-06T02:08:24.604Z,17.16
2019-01-06T02:09:24.067Z,17.16
2019-01-06T02:10:24.687Z,17.15
2019-01-06T02:11:24.351Z,17.15
2019-01-06T02:12:24.269Z,17.15
2019-01-06T02:13:24.766Z,17.13
2019-01-06T02:14:24.428Z,17.12
2019-01-06T02:15:24.366Z,17.12
2019-01-06T02:16:24.352Z,17.12
2019-01-06T02:17:24.284Z,17.11
2019-01-06T02:18:24.596Z,17.1
2019-01-06T02:19:24.266Z,17.1
2019-01-06T02:20:24.158Z,17.11
2019-01-06T02:21:24.062Z,17.11
2019-01-06T02:22:24.228Z,17.11
2019-01-06T02:23:25.004Z,17.1
2019-01-06T02:24:25.088Z,17.1
2019-01-06T02:25:24.686Z,17.1
2019-01-06T02:26:24.591Z,17.1
2019-01-06T02:27:24.551Z,17.1
2019-01-06T02:28:24.512Z,17.1
2019-01-06T02:29:25.145Z,17.09
2019-01-06T02:30:24.753Z,17.09
2019-01-06T02:31:24.232Z,17.1
2019-01-06T02:32:24.263Z,17.1
2019-01-06T02:33:24.537Z,17.09
2019-01-06T02:34:24.346Z,17.08
2019-01-06T02:35:24.546Z,17.07
2019-01-06T02:36:24.728Z,17.09
2019-01-06T02:37:24.266Z,17.08
2019-01-06T02:38:24.264Z,17.07
2019-01-06T02:39:24.557Z,17.09
2019-01-06T02:40:24.247Z,17.07
2019-01-06T02:41:24.733Z,17.07
2019-01-06T02:42:24.395Z,17.06
2019-01-06T02:43:24.721Z,17.06
2019-01-06T02:44:24.368Z,17.07
2019-01-06T02:45:24.086Z,17.05
2019-01-06T02:46:24.345Z,17.06
2019-01-06T02:47:25.486Z,17.06
2019-01-06T02:48:24.499Z,17.05
2019-01-06T02:49:24.307Z,17.05
2019-01-06T02:50:24.749Z,17.05
2019-01-06T02:51:24.289Z,17.05
2019-01-06T02:52:24.191Z,17.04
2019-01-06T02:53:24.383Z,17.04
2019-01-06T02:54:24.271Z,17.04
2019-01-06T02:55:24.143Z,17.04
2019-01-06T02:56:24.542Z,17.04
2019-01-06T02:57:24.114Z,17.05
2019-01-06T02:58:24.404Z,17.04
2019-01-06T02:59:24.529Z,17.03
2019-01-06T03:00:24.114Z,17.04
2019-01-06T03:01:24.526Z,17.02
2019-01-06T03:02:24.271Z,17.02
2019-01-06T03:03:24.232Z,17.01
2019-01-06T03:04:24.491Z,17.01
2019-01-06T03:05:24.173Z,17.02
2019-01-06T03:06:24.363Z,17
2019-01-06T03:07:24.603Z,16.99
2019-01-06T03:08:24.743Z,16.99
2019-01-06T03:09:24.113Z,16.99
2019-01-06T03:10:24.413Z,16.98
2019-01-06T03:11:24.679Z,16.99
2019-01-06T03:12:24.223Z,16.99
2019-01-06T03:13:24.299Z,16.99
2019-01-06T03:14:24.254Z,16.98
2019-01-06T03:15:24.534Z,16.98
2019-01-06T03:16:24.786Z,16.98
2019-01-06T03:17:24.487Z,16.98
2019-01-06T03:18:24.249Z,16.98
2019-01-06T03:19:24.051Z,16.98
2019-01-06T03:20:24.626Z,16.98
2019-01-06T03:21:24.546Z,16.98
2019-01-06T03:22:24.762Z,16.98
2019-01-06T03:23:24.752Z,16.96
2019-01-06T03:24:24.614Z,16.97
2019-01-06T03:25:24.222Z,16.96
2019-01-06T03:26:24.688Z,16.96
2019-01-06T03:27:24.984Z,16.96
2019-01-06T03:28:24.448Z,16.96
2019-01-06T03:29:24.802Z,16.97
2019-01-06T03:30:24.796Z,16.96
2019-01-06T03:31:24.625Z,16.94
2019-01-06T03:32:24.746Z,16.94
2019-01-06T03:33:24.190Z,16.94
2019-01-06T03:34:24.267Z,16.92
2019-01-06T03:35:24.703Z,16.92
2019-01-06T03:36:24.139Z,16.92
2019-01-06T03:37:24.669Z,16.92
2019-01-06T03:38:24.160Z,16.92
2019-01-06T03:39:24.881Z,16.92
2019-01-06T03:40:24.522Z,16.92
2019-01-06T03:41:24.179Z,16.91
2019-01-06T03:42:24.350Z,16.91
2019-01-06T03:43:24.101Z,16.91
2019-01-06T03:44:24.696Z,16.91
2019-01-06T03:45:24.200Z,16.91
2019-01-06T03:46:24.431Z,16.91
2019-01-06T03:47:24.599Z,16.91
2019-01-06T03:48:24.452Z,16.9
2019-01-06T03:49:25.088Z,16.9
2019-01-06T03:50:24.315Z,16.9
2019-01-06T03:51:24.726Z,16.9
2019-01-06T03:52:24.300Z,16.9
2019-01-06T03:53:24.129Z,16.9
2019-01-06T03:54:25.034Z,16.9
2019-01-06T03:55:24.550Z,16.9
2019-01-06T03:56:25.163Z,16.9
2019-01-06T03:57:24.400Z,16.9
2019-01-06T03:58:25.054Z,16.9
2019-01-06T03:59:24.042Z,16.88
2019-01-06T04:00:24.213Z,16.88
2019-01-06T04:01:24.286Z,16.87
2019-01-06T04:02:24.164Z,16.88
2019-01-06T04:03:24.332Z,16.88
2019-01-06T04:04:24.378Z,16.88
2019-01-06T04:05:24.669Z,16.88
2019-01-06T04:06:24.519Z,16.87
2019-01-06T04:07:24.218Z,16.86
2019-01-06T04:08:24.204Z,16.86
2019-01-06T04:09:24.521Z,16.86
2019-01-06T04:10:24.769Z,16.85
2019-01-06T04:11:24.438Z,16.85
2019-01-06T04:12:24.506Z,16.85
2019-01-06T04:13:24.394Z,16.85
2019-01-06T04:14:24.808Z,16.84
2019-01-06T04:15:24.655Z,16.84
2019-01-06T04:16:24.745Z,16.84
2019-01-06T04:17:24.232Z,16.84
2019-01-06T04:18:24.657Z,16.83
2019-01-06T04:19:24.326Z,16.83
2019-01-06T04:20:24.388Z,16.82
2019-01-06T04:21:24.076Z,16.83
2019-01-06T04:22:24.657Z,16.83
2019-01-06T04:23:24.373Z,16.82
2019-01-06T04:24:24.405Z,16.82
2019-01-06T04:25:24.610Z,16.82
2019-01-06T04:26:24.320Z,16.81
2019-01-06T04:27:24.344Z,16.81
2019-01-06T04:28:24.395Z,16.8
2019-01-06T04:29:24.504Z,16.82
2019-01-06T04:30:24.333Z,16.82
2019-01-06T04:31:24.482Z,16.81
2019-01-06T04:32:24.294Z,16.8
2019-01-06T04:33:24.378Z,16.8
2019-01-06T04:34:24.704Z,16.8
2019-01-06T04:35:24.608Z,16.79
2019-01-06T04:36:24.193Z,16.8
2019-01-06T04:37:24.176Z,16.81
2019-01-06T04:38:24.128Z,16.81
2019-01-06T04:39:24.291Z,16.81
2019-01-06T04:40:24.702Z,16.82
2019-01-06T04:41:24.218Z,16.82
2019-01-06T04:42:24.631Z,16.82
2019-01-06T04:43:24.284Z,16.82
2019-01-06T04:44:24.310Z,16.83
2019-01-06T04:45:24.284Z,16.84
2019-01-06T04:46:24.358Z,16.84
2019-01-06T04:47:24.280Z,16.84
2019-01-06T04:48:24.546Z,16.85
2019-01-06T04:49:24.280Z,16.85
2019-01-06T04:50:24.156Z,16.85
2019-01-06T04:51:24.275Z,16.86
2019-01-06T04:52:24.521Z,16.88
2019-01-06T04:53:24.211Z,16.88
2019-01-06T04:54:24.574Z,16.89
2019-01-06T04:55:24.197Z,16.9
2019-01-06T04:56:24.358Z,16.91
2019-01-06T04:57:24.097Z,16.92
2019-01-06T04:58:24.221Z,16.93
2019-01-06T04:59:25.274Z,16.94
2019-01-06T05:00:24.741Z,16.96
2019-01-06T05:01:24.714Z,16.98
2019-01-06T05:02:24.453Z,17
2019-01-06T05:03:24.236Z,17.01
2019-01-06T05:04:25.025Z,17.04
2019-01-06T05:05:24.452Z,17.04
2019-01-06T05:06:24.778Z,17.07
2019-01-06T05:07:24.628Z,17.09
2019-01-06T05:08:24.268Z,17.11
2019-01-06T05:09:24.166Z,17.14
2019-01-06T05:10:24.309Z,17.14
2019-01-06T05:11:25.060Z,17.15
2019-01-06T05:12:24.536Z,17.17
2019-01-06T05:13:24.198Z,17.19
2019-01-06T05:14:24.168Z,17.2
2019-01-06T05:15:24.138Z,17.22
2019-01-06T05:16:24.099Z,17.24
2019-01-06T05:17:24.330Z,17.26
2019-01-06T05:18:24.639Z,17.28
2019-01-06T05:19:24.051Z,17.29
2019-01-06T05:20:24.255Z,17.32
2019-01-06T05:21:24.181Z,17.33
2019-01-06T05:22:24.261Z,17.36
2019-01-06T05:23:25.036Z,17.37
2019-01-06T05:24:24.104Z,17.39
2019-01-06T05:25:24.483Z,17.4
2019-01-06T05:26:24.927Z,17.43
2019-01-06T05:27:24.199Z,17.43
2019-01-06T05:28:24.724Z,17.46
2019-01-06T05:29:24.275Z,17.48
2019-01-06T05:30:24.146Z,17.49
2019-01-06T05:31:24.175Z,17.5
2019-01-06T05:32:25.096Z,17.51
2019-01-06T05:33:24.441Z,17.54
2019-01-06T05:34:25.105Z,17.55
2019-01-06T05:35:24.679Z,17.56
2019-01-06T05:36:24.204Z,17.59
2019-01-06T05:37:24.696Z,17.61
2019-01-06T05:38:24.530Z,17.61
2019-01-06T05:39:24.123Z,17.63
2019-01-06T05:40:24.536Z,17.65
2019-01-06T05:41:24.220Z,17.66
2019-01-06T05:42:24.373Z,17.66
2019-01-06T05:43:24.628Z,17.67
2019-01-06T05:44:24.616Z,17.69
2019-01-06T05:45:24.026Z,17.72
2019-01-06T05:46:24.405Z,17.73
2019-01-06T05:47:25.247Z,17.74
2019-01-06T05:48:24.180Z,17.75
2019-01-06T05:49:24.429Z,17.76
2019-01-06T05:50:24.560Z,17.77
2019-01-06T05:51:24.156Z,17.79
2019-01-06T05:52:24.052Z,17.79
2019-01-06T05:53:24.122Z,17.81
2019-01-06T05:54:24.256Z,17.82
2019-01-06T05:55:24.168Z,17.84
2019-01-06T05:56:24.446Z,17.85
2019-01-06T05:57:24.069Z,17.86
2019-01-06T05:58:24.560Z,17.86
2019-01-06T05:59:24.230Z,17.88
2019-01-06T06:00:24.297Z,17.9
2019-01-06T06:01:24.314Z,17.91
2019-01-06T06:02:24.205Z,17.92
2019-01-06T06:03:24.311Z,17.92
2019-01-06T06:04:24.210Z,17.94
2019-01-06T06:05:24.067Z,17.95
2019-01-06T06:06:24.314Z,17.97
2019-01-06T06:07:23.990Z,17.98
2019-01-06T06:08:24.219Z,17.99
2019-01-06T06:09:24.213Z,18.01
2019-01-06T06:10:24.153Z,18.02
2019-01-06T06:11:24.454Z,18.03
2019-01-06T06:12:24.548Z,18.04
2019-01-06T06:13:24.411Z,18.04
2019-01-06T06:14:24.393Z,18.06
2019-01-06T06:15:24.395Z,18.07
2019-01-06T06:16:24.631Z,18.08
2019-01-06T06:17:24.047Z,18.09
2019-01-06T06:18:24.211Z,18.11
2019-01-06T06:19:24.035Z,18.11
2019-01-06T06:20:24.333Z,18.12
2019-01-06T06:21:24.238Z,18.14
2019-01-06T06:22:24.351Z,18.15
2019-01-06T06:23:24.252Z,18.17
2019-01-06T06:24:24.004Z,18.17
2019-01-06T06:25:24.116Z,18.18
2019-01-06T06:26:24.325Z,18.19
2019-01-06T06:27:24.065Z,18.19
2019-01-06T06:28:24.253Z,18.2
2019-01-06T06:29:24.254Z,18.2
2019-01-06T06:30:24.317Z,18.21
2019-01-06T06:31:24.425Z,18.22
2019-01-06T06:32:24.112Z,18.22
2019-01-06T06:33:24.296Z,18.23
2019-01-06T06:34:24.015Z,18.23
2019-01-06T06:35:24.246Z,18.24
2019-01-06T06:36:24.090Z,18.24
2019-01-06T06:37:24.241Z,18.23
2019-01-06T06:38:24.408Z,18.24
2019-01-06T06:39:24.123Z,18.25
2019-01-06T06:40:24.438Z,18.25
2019-01-06T06:41:24.280Z,18.25
2019-01-06T06:42:24.380Z,18.25
2019-01-06T06:43:24.258Z,18.26
2019-01-06T06:44:24.437Z,18.26
2019-01-06T06:45:24.898Z,18.26
2019-01-06T06:46:24.601Z,18.28
2019-01-06T06:47:25.048Z,18.28
2019-01-06T06:48:24.423Z,18.28
2019-01-06T06:49:24.419Z,18.28
2019-01-06T06:50:24.266Z,18.29
2019-01-06T06:51:24.009Z,18.29
2019-01-06T06:52:24.459Z,18.29
2019-01-06T06:53:24.510Z,18.29
2019-01-06T06:54:24.397Z,18.3
2019-01-06T06:55:24.448Z,18.31
2019-01-06T06:56:24.228Z,18.31
2019-01-06T06:57:24.134Z,18.32
2019-01-06T06:58:24.187Z,18.32
2019-01-06T06:59:24.207Z,18.33
2019-01-06T07:00:24.342Z,18.31
2019-01-06T07:01:24.333Z,18.32
2019-01-06T07:02:25.168Z,18.33
2019-01-06T07:03:24.262Z,18.33
2019-01-06T07:04:24.107Z,18.34
2019-01-06T07:05:24.081Z,18.34
2019-01-06T07:06:24.531Z,18.34
2019-01-06T07:07:23.950Z,18.35
2019-01-06T07:08:24.444Z,18.35
2019-01-06T07:09:24.587Z,18.36
2019-01-06T07:10:24.372Z,18.37
2019-01-06T07:11:24.274Z,18.37
2019-01-06T07:12:23.945Z,18.37
2019-01-06T07:13:24.291Z,18.37
2019-01-06T07:14:24.252Z,18.37
2019-01-06T07:15:24.284Z,18.39
2019-01-06T07:16:24.277Z,18.4
2019-01-06T07:17:24.185Z,18.41
2019-01-06T07:18:24.245Z,18.41
2019-01-06T07:19:24.251Z,18.42
2019-01-06T07:20:24.104Z,18.42
2019-01-06T07:21:24.127Z,18.42
2019-01-06T07:22:24.127Z,18.44
2019-01-06T07:23:24.152Z,18.44
2019-01-06T07:24:24.564Z,18.46
2019-01-06T07:25:24.014Z,18.47
2019-01-06T07:26:24.421Z,18.47
2019-01-06T07:27:24.335Z,18.47
2019-01-06T07:28:25.059Z,18.48
2019-01-06T07:29:23.976Z,18.49
2019-01-06T07:30:24.087Z,18.5
2019-01-06T07:31:24.516Z,18.5
2019-01-06T07:32:24.164Z,18.5
2019-01-06T07:33:24.441Z,18.51
2019-01-06T07:34:24.024Z,18.52
2019-01-06T07:35:24.477Z,18.53
2019-01-06T07:36:24.705Z,18.54
2019-01-06T07:37:24.187Z,18.54
2019-01-06T07:38:24.205Z,18.54
2019-01-06T07:39:24.437Z,18.54
2019-01-06T07:40:24.323Z,18.56
2019-01-06T07:41:24.287Z,18.55
2019-01-06T07:42:24.338Z,18.56
2019-01-06T07:43:24.586Z,18.57
2019-01-06T07:44:24.264Z,18.58
2019-01-06T07:45:24.426Z,18.57
2019-01-06T07:46:24.044Z,18.58
2019-01-06T07:47:24.222Z,18.59
2019-01-06T07:48:24.137Z,18.6
2019-01-06T07:49:24.046Z,18.6
2019-01-06T07:50:24.565Z,18.6
2019-01-06T07:51:24.108Z,18.6
2019-01-06T07:52:24.165Z,18.61
2019-01-06T07:53:24.760Z,18.62
2019-01-06T07:54:24.053Z,18.62
2019-01-06T07:55:24.279Z,18.61
2019-01-06T07:56:24.078Z,18.62
2019-01-06T07:57:24.147Z,18.62
2019-01-06T07:58:24.346Z,18.62
2019-01-06T07:59:23.998Z,18.64
2019-01-06T08:00:24.235Z,18.66
2019-01-06T08:01:24.564Z,18.66
2019-01-06T08:02:24.353Z,18.66
2019-01-06T08:03:24.275Z,18.66
2019-01-06T08:04:24.510Z,18.65
2019-01-06T08:05:24.110Z,18.66
2019-01-06T08:06:24.142Z,18.66
2019-01-06T08:07:24.292Z,18.66
2019-01-06T08:08:24.155Z,18.66
2019-01-06T08:09:24.072Z,18.66
2019-01-06T08:10:24.254Z,18.67
2019-01-06T08:11:24.172Z,18.67
2019-01-06T08:12:24.212Z,18.66
2019-01-06T08:13:24.027Z,18.67
2019-01-06T08:14:24.251Z,18.68
2019-01-06T08:15:24.179Z,18.69
2019-01-06T08:16:24.173Z,18.69
2019-01-06T08:17:24.357Z,18.69
2019-01-06T08:18:24.060Z,18.69
2019-01-06T08:19:24.430Z,18.69
2019-01-06T08:20:24.067Z,18.7
2019-01-06T08:21:24.283Z,18.7
2019-01-06T08:22:24.184Z,18.7
2019-01-06T08:23:24.157Z,18.7
2019-01-06T08:24:24.133Z,18.7
2019-01-06T08:25:24.042Z,18.71
2019-01-06T08:26:24.345Z,18.71
2019-01-06T08:27:23.915Z,18.72
2019-01-06T08:28:24.741Z,18.72
2019-01-06T08:29:24.233Z,18.72
2019-01-06T08:30:24.441Z,18.72
2019-01-06T08:31:24.381Z,18.72
2019-01-06T08:32:24.030Z,18.72
2019-01-06T08:33:25.119Z,18.73
2019-01-06T08:34:24.255Z,18.72
2019-01-06T08:35:24.379Z,18.72
2019-01-06T08:36:24.209Z,18.74
2019-01-06T08:37:24.088Z,18.73
2019-01-06T08:38:24.230Z,18.74
2019-01-06T08:39:24.547Z,18.75
2019-01-06T08:40:24.344Z,18.75
2019-01-06T08:41:24.459Z,18.75
2019-01-06T08:42:24.552Z,18.76
2019-01-06T08:43:24.187Z,18.76
2019-01-06T08:44:23.962Z,18.76
2019-01-06T08:45:24.453Z,18.77
2019-01-06T08:46:24.723Z,18.77
2019-01-06T08:47:24.231Z,18.78
2019-01-06T08:48:24.424Z,18.78
2019-01-06T08:49:24.377Z,18.78
2019-01-06T08:50:24.047Z,18.78
2019-01-06T08:51:24.519Z,18.78
2019-01-06T08:52:24.493Z,18.79
2019-01-06T08:53:24.220Z,18.79
2019-01-06T08:54:23.936Z,18.79
2019-01-06T08:55:24.540Z,18.8
2019-01-06T08:56:24.329Z,18.8
2019-01-06T08:57:24.339Z,18.8
2019-01-06T08:58:24.186Z,18.82
2019-01-06T08:59:24.030Z,18.82
2019-01-06T09:00:24.196Z,18.81
2019-01-06T09:01:24.114Z,18.81
2019-01-06T09:02:24.107Z,18.82
2019-01-06T09:03:24.499Z,18.84
2019-01-06T09:04:24.279Z,18.83
2019-01-06T09:05:24.152Z,18.84
2019-01-06T09:06:24.298Z,18.84
2019-01-06T09:07:24.145Z,18.84
2019-01-06T09:08:24.556Z,18.84
2019-01-06T09:09:24.467Z,18.84
2019-01-06T09:10:24.238Z,18.84
2019-01-06T09:11:24.358Z,18.84
2019-01-06T09:12:25.063Z,18.86
2019-01-06T09:13:24.572Z,18.86
2019-01-06T09:14:24.245Z,18.86
2019-01-06T09:15:24.139Z,18.87
2019-01-06T09:16:24.182Z,18.87
2019-01-06T09:17:24.458Z,18.88
2019-01-06T09:18:24.202Z,18.88
2019-01-06T09:19:24.097Z,18.89
2019-01-06T09:20:24.165Z,18.89
2019-01-06T09:21:24.975Z,18.89
2019-01-06T09:22:24.376Z,18.89
2019-01-06T09:23:24.009Z,18.9
2019-01-06T09:24:24.063Z,18.9
2019-01-06T09:25:23.967Z,18.9
2019-01-06T09:26:24.435Z,18.92
2019-01-06T09:27:24.252Z,18.92
2019-01-06T09:28:24.149Z,18.92
2019-01-06T09:29:24.269Z,18.93
2019-01-06T09:30:24.953Z,18.93
2019-01-06T09:31:24.267Z,18.94
2019-01-06T09:32:23.920Z,18.94
2019-01-06T09:33:24.479Z,18.95
2019-01-06T09:34:24.711Z,18.95
2019-01-06T09:35:24.075Z,18.95
2019-01-06T09:36:24.522Z,18.96
2019-01-06T09:37:24.182Z,18.96
2019-01-06T09:38:24.492Z,18.96
2019-01-06T09:39:24.440Z,18.96
2019-01-06T09:40:24.380Z,18.97
2019-01-06T09:41:24.111Z,18.97
2019-01-06T09:42:24.962Z,18.95
2019-01-06T09:43:24.256Z,18.96
2019-01-06T09:44:23.992Z,18.96
2019-01-06T09:45:24.426Z,18.96
2019-01-06T09:46:24.493Z,18.97
2019-01-06T09:47:24.290Z,18.97
2019-01-06T09:48:24.150Z,18.97
2019-01-06T09:49:24.188Z,18.97
2019-01-06T09:50:24.217Z,18.97
2019-01-06T09:51:24.165Z,18.97
2019-01-06T09:52:24.053Z,18.97
2019-01-06T09:53:24.112Z,18.97
2019-01-06T09:54:24.449Z,18.97
2019-01-06T09:55:24.009Z,18.97
2019-01-06T09:56:24.371Z,18.97
2019-01-06T09:57:24.066Z,18.97
2019-01-06T09:58:24.109Z,18.96
2019-01-06T09:59:24.172Z,18.96
2019-01-06T10:00:24.233Z,18.95
2019-01-06T10:01:24.074Z,18.95
2019-01-06T10:02:24.382Z,18.94
2019-01-06T10:03:24.243Z,18.94
2019-01-06T10:04:23.916Z,18.94
2019-01-06T10:05:24.132Z,18.94
2019-01-06T10:06:24.540Z,18.93
2019-01-06T10:07:24.346Z,18.92
2019-01-06T10:08:24.264Z,18.93
2019-01-06T10:09:23.903Z,18.93
2019-01-06T10:10:24.895Z,18.93
2019-01-06T10:11:23.915Z,18.92
2019-01-06T10:12:23.980Z,18.91
2019-01-06T10:13:24.148Z,18.91
2019-01-06T10:14:24.049Z,18.91
2019-01-06T10:15:24.427Z,18.9
2019-01-06T10:16:24.018Z,18.9
2019-01-06T10:17:24.074Z,18.9
2019-01-06T10:18:24.369Z,18.9
2019-01-06T10:19:23.976Z,18.9
2019-01-06T10:20:24.204Z,18.9
2019-01-06T10:21:24.312Z,18.9
2019-01-06T10:22:24.480Z,18.9
2019-01-06T10:23:24.246Z,18.91
2019-01-06T10:24:24.712Z,18.9
2019-01-06T10:25:24.105Z,18.9
2019-01-06T10:26:23.929Z,18.9
2019-01-06T10:27:24.491Z,18.9
2019-01-06T10:28:24.365Z,18.9
2019-01-06T10:29:24.675Z,18.9
2019-01-06T10:30:24.186Z,18.9
2019-01-06T10:31:26.790Z,18.9
2019-01-06T10:32:24.591Z,18.9
2019-01-06T10:33:24.098Z,18.91
2019-01-06T10:34:24.087Z,18.9
2019-01-06T10:35:24.384Z,18.9
2019-01-06T10:36:24.417Z,18.88
2019-01-06T10:37:24.093Z,18.91
2019-01-06T10:38:24.465Z,18.94
2019-01-06T10:39:25.337Z,18.95
2019-01-06T10:40:24.768Z,18.95
2019-01-06T10:41:24.944Z,18.97
2019-01-06T10:42:24.044Z,18.97
2019-01-06T10:43:23.893Z,18.98
2019-01-06T10:44:24.293Z,19
2019-01-06T10:45:25.006Z,19.02
2019-01-06T10:46:24.410Z,19.03
2019-01-06T10:47:24.015Z,19.04
2019-01-06T10:48:24.235Z,19.06
2019-01-06T10:49:24.593Z,19.09
2019-01-06T10:50:24.239Z,19.1
2019-01-06T10:51:24.704Z,19.08
2019-01-06T10:52:24.007Z,19.07
2019-01-06T10:53:24.860Z,19.08
2019-01-06T10:54:24.184Z,19.08
2019-01-06T10:55:24.081Z,19.09
2019-01-06T10:56:24.106Z,19.09
2019-01-06T10:57:24.639Z,19.1
2019-01-06T10:58:24.366Z,19.12
2019-01-06T10:59:24.066Z,19.14
2019-01-06T11:00:24.440Z,19.14
2019-01-06T11:01:24.952Z,19.15
2019-01-06T11:02:25.875Z,19.15
2019-01-06T11:03:24.847Z,19.18
2019-01-06T11:04:24.944Z,19.17
2019-01-06T11:05:25.183Z,19.16
2019-01-06T11:06:26.215Z,19.17
2019-01-06T11:07:24.287Z,19.18
2019-01-06T11:08:24.965Z,19.19
2019-01-06T11:09:24.751Z,19.18
2019-01-06T11:10:25.015Z,19.2
2019-01-06T11:11:24.850Z,19.2
2019-01-06T11:12:25.982Z,19.18
2019-01-06T11:13:25.536Z,19.2
2019-01-06T11:14:25.904Z,19.2
2019-01-06T11:15:24.432Z,19.2
2019-01-06T11:16:25.546Z,19.21
2019-01-06T11:17:25.254Z,19.21
2019-01-06T11:18:24.332Z,19.21
2019-01-06T11:19:25.085Z,19.22
2019-01-06T11:20:26.136Z,19.23
2019-01-06T11:21:25.673Z,19.23
2019-01-06T11:22:25.943Z,19.23
2019-01-06T11:23:24.777Z,19.24
2019-01-06T11:24:25.511Z,19.24
2019-01-06T11:25:25.016Z,19.24
2019-01-06T11:26:25.799Z,19.26
2019-01-06T11:27:27.180Z,19.25
2019-01-06T11:28:25.238Z,19.26
2019-01-06T11:29:25.563Z,19.25
2019-01-06T11:30:24.928Z,19.26
2019-01-06T11:31:26.386Z,19.26
2019-01-06T11:32:24.733Z,19.26
2019-01-06T11:33:25.320Z,19.27
2019-01-06T11:34:26.808Z,19.28
2019-01-06T11:35:25.552Z,19.28
2019-01-06T11:36:25.080Z,19.29
2019-01-06T11:37:25.737Z,19.28
2019-01-06T11:38:25.407Z,19.3
2019-01-06T11:39:24.405Z,19.31
2019-01-06T11:40:25.647Z,19.32
2019-01-06T11:41:24.576Z,19.32
2019-01-06T11:42:25.586Z,19.33
2019-01-06T11:43:25.513Z,19.33
2019-01-06T11:44:24.505Z,19.34
2019-01-06T11:45:24.846Z,19.34
2019-01-06T11:46:25.038Z,19.34
2019-01-06T11:47:25.746Z,19.36
2019-01-06T11:48:24.463Z,19.37
2019-01-06T11:49:25.182Z,19.38
2019-01-06T11:50:24.313Z,19.39
2019-01-06T11:51:24.986Z,19.4
2019-01-06T11:52:25.503Z,19.41
2019-01-06T11:53:26.745Z,19.42
2019-01-06T11:54:25.509Z,19.44
2019-01-06T11:55:25.244Z,19.44
2019-01-06T11:56:25.653Z,19.46
2019-01-06T11:57:25.229Z,19.47
2019-01-06T11:58:25.214Z,19.48
2019-01-06T11:59:25.053Z,19.49
2019-01-06T12:00:24.949Z,19.49
2019-01-06T12:01:25.800Z,19.5
2019-01-06T12:02:25.657Z,19.48
2019-01-06T12:03:25.604Z,19.5
2019-01-06T12:04:23.952Z,19.49
2019-01-06T12:05:24.538Z,19.48
2019-01-06T12:06:24.195Z,19.49
2019-01-06T12:07:23.880Z,19.5
2019-01-06T12:08:24.234Z,19.5
2019-01-06T12:09:24.453Z,19.51
2019-01-06T12:10:23.990Z,19.46
2019-01-06T12:11:23.987Z,19.45
2019-01-06T12:12:24.453Z,19.44
2019-01-06T12:13:24.150Z,19.42
2019-01-06T12:14:23.990Z,19.4
2019-01-06T12:15:24.320Z,19.4
2019-01-06T12:16:24.169Z,19.39
2019-01-06T12:17:23.943Z,19.38
2019-01-06T12:18:24.212Z,19.37
2019-01-06T12:19:24.302Z,19.36
2019-01-06T12:20:24.159Z,19.35
2019-01-06T12:21:24.041Z,19.34
2019-01-06T12:22:24.240Z,19.35
2019-01-06T12:23:24.447Z,19.34
2019-01-06T12:24:23.977Z,19.33
2019-01-06T12:25:24.406Z,19.33
2019-01-06T12:26:24.282Z,19.33
2019-01-06T12:27:24.914Z,19.32
2019-01-06T12:28:25.032Z,19.32
2019-01-06T12:29:24.501Z,19.33
2019-01-06T12:30:24.418Z,19.35
2019-01-06T12:31:24.516Z,19.38
2019-01-06T12:32:23.902Z,19.4
2019-01-06T12:33:24.169Z,19.42
2019-01-06T12:34:24.527Z,19.43
2019-01-06T12:35:24.351Z,19.42
2019-01-06T12:36:24.098Z,19.42
2019-01-06T12:37:23.882Z,19.45
2019-01-06T12:38:25.054Z,19.44
2019-01-06T12:39:24.613Z,19.43
2019-01-06T12:40:24.471Z,19.42
2019-01-06T12:41:24.160Z,19.41
2019-01-06T12:42:23.945Z,19.41
2019-01-06T12:43:24.678Z,19.41
2019-01-06T12:44:23.967Z,19.39
2019-01-06T12:45:24.212Z,19.4
2019-01-06T12:46:23.931Z,19.39
2019-01-06T12:47:24.169Z,19.39
2019-01-06T12:48:24.240Z,19.39
2019-01-06T12:49:24.018Z,19.39
2019-01-06T12:50:23.937Z,19.39
2019-01-06T12:51:24.999Z,19.4
2019-01-06T12:52:24.020Z,19.4
2019-01-06T12:53:24.440Z,19.4
2019-01-06T12:54:23.874Z,19.39
2019-01-06T12:55:24.563Z,19.39
2019-01-06T12:56:24.196Z,19.39